createdAt,value
2023-01-27T00:00:10.655Z,1015.8
2023-01-27T00:01:16.744Z,1015.8
2023-01-27T00:02:20.327Z,1015.8
2023-01-27T00:03:24.629Z,1015.8
2023-01-27T00:04:28.413Z,1015.8
2023-01-27T00:05:31.960Z,1015.9
2023-01-27T00:06:35.338Z,1015.9
2023-01-27T00:07:39.154Z,1015.8
2023-01-27T00:08:42.450Z,1015.8
2023-01-27T00:09:47.563Z,1015.9
2023-01-27T00:10:51.038Z,1015.8
2023-01-27T00:11:54.721Z,1015.9
2023-01-27T00:12:58.159Z,1015.8
2023-01-27T00:14:00.605Z,1015.9
2023-01-27T00:15:03.395Z,1015.8
2023-01-27T00:16:06.934Z,1015.8
2023-01-27T00:17:10.871Z,1015.9
2023-01-27T00:18:13.951Z,1015.8
2023-01-27T00:19:17.524Z,1015.9
2023-01-27T00:20:20.896Z,1015.9
2023-01-27T00:21:23.752Z,1016
2023-01-27T00:22:26.740Z,1015.9
2023-01-27T00:23:30.076Z,1015.9
2023-01-27T00:24:33.133Z,1016
2023-01-27T00:25:35.867Z,1016
2023-01-27T00:26:39.351Z,1016
2023-01-27T00:27:42.418Z,1016
2023-01-27T00:28:45.805Z,1016
2023-01-27T00:29:49.348Z,1016
2023-01-27T00:30:52.325Z,1016
2023-01-27T00:32:10.883Z,1016
2023-01-27T00:33:13.697Z,1016
2023-01-27T00:34:16.417Z,1016
2023-01-27T00:35:20.295Z,1016
2023-01-27T00:36:23.649Z,1016
2023-01-27T00:37:27.140Z,1016
2023-01-27T00:38:30.805Z,1016.1
2023-01-27T00:39:34.883Z,1016.1
2023-01-27T00:40:38.868Z,1016.1
2023-01-27T00:41:41.964Z,1016.1
2023-01-27T00:42:45.321Z,1016
2023-01-27T00:43:49.090Z,1016.1
2023-01-27T00:44:52.210Z,1016.1
2023-01-27T00:45:55.847Z,1016.1
2023-01-27T00:46:58.942Z,1016.2
2023-01-27T00:48:02.035Z,1016.2
2023-01-27T00:49:06.095Z,1016.2
2023-01-27T00:50:10.224Z,1016.2
2023-01-27T00:51:15.207Z,1016.2
2023-01-27T00:52:18.526Z,1016.2
2023-01-27T00:53:20.699Z,1016.3
2023-01-27T00:54:23.948Z,1016.3
2023-01-27T00:55:27.608Z,1016.3
2023-01-27T00:56:30.804Z,1016.3
2023-01-27T00:57:34.572Z,1016.3
2023-01-27T00:58:37.981Z,1016.3
2023-01-27T00:59:41.345Z,1016.3
2023-01-27T01:00:44.747Z,1016.4
2023-01-27T01:01:49.041Z,1016.4
2023-01-27T01:02:53.106Z,1016.3
2023-01-27T01:03:57.071Z,1016.4
2023-01-27T01:05:00.439Z,1016.4
2023-01-27T01:06:03.608Z,1016.4
2023-01-27T01:07:07.056Z,1016.4
2023-01-27T01:08:10.170Z,1016.4
2023-01-27T01:09:12.662Z,1016.4
2023-01-27T01:10:16.041Z,1016.4
2023-01-27T01:11:19.307Z,1016.4
2023-01-27T01:12:21.741Z,1016.4
2023-01-27T01:13:25.491Z,1016.4
2023-01-27T01:14:28.371Z,1016.4
2023-01-27T01:15:31.723Z,1016.4
2023-01-27T01:16:35.546Z,1016.4
2023-01-27T01:17:38.324Z,1016.4
2023-01-27T01:18:41.691Z,1016.5
2023-01-27T01:19:45.413Z,1016.5
2023-01-27T01:20:48.770Z,1016.5
2023-01-27T01:21:51.557Z,1016.5
2023-01-27T01:22:55.613Z,1016.5
2023-01-27T01:23:58.470Z,1016.4
2023-01-27T01:25:01.718Z,1016.5
2023-01-27T01:26:05.345Z,1016.4
2023-01-27T01:27:08.433Z,1016.5
2023-01-27T01:28:11.153Z,1016.5
2023-01-27T01:29:14.287Z,1016.5
2023-01-27T01:30:16.481Z,1016.5
2023-01-27T01:31:19.672Z,1016.5
2023-01-27T01:32:23.377Z,1016.6
2023-01-27T01:33:26.384Z,1016.6
2023-01-27T01:34:28.884Z,1016.5
2023-01-27T01:35:31.155Z,1016.6
2023-01-27T01:36:33.460Z,1016.5
2023-01-27T01:37:36.877Z,1016.6
2023-01-27T01:38:40.311Z,1016.6
2023-01-27T01:39:43.793Z,1016.6
2023-01-27T01:40:47.155Z,1016.6
2023-01-27T01:41:50.512Z,1016.6
2023-01-27T01:42:53.972Z,1016.7
2023-01-27T01:43:56.992Z,1016.6
2023-01-27T01:45:00.486Z,1016.7
2023-01-27T01:46:03.927Z,1016.7
2023-01-27T01:47:06.745Z,1016.7
2023-01-27T01:48:10.182Z,1016.7
2023-01-27T01:49:13.519Z,1016.7
2023-01-27T01:50:16.682Z,1016.7
2023-01-27T01:51:19.414Z,1016.7
2023-01-27T01:52:23.066Z,1016.7
2023-01-27T01:53:26.771Z,1016.7
2023-01-27T01:54:30.884Z,1016.7
2023-01-27T01:55:33.623Z,1016.7
2023-01-27T01:56:36.448Z,1016.8
2023-01-27T01:57:39.751Z,1016.8
2023-01-27T01:59:46.546Z,1016.8
2023-01-27T02:00:50.134Z,1016.8
2023-01-27T02:01:53.179Z,1016.8
2023-01-27T02:02:56.483Z,1016.8
2023-01-27T02:03:59.844Z,1016.8
2023-01-27T02:05:02.641Z,1016.8
2023-01-27T02:06:05.165Z,1016.8
2023-01-27T02:07:08.354Z,1016.9
2023-01-27T02:08:10.822Z,1016.9
2023-01-27T02:09:14.200Z,1016.9
2023-01-27T02:10:17.484Z,1016.9
2023-01-27T02:11:19.707Z,1016.9
2023-01-27T02:12:23.449Z,1016.9
2023-01-27T02:13:26.831Z,1016.8
2023-01-27T02:14:30.123Z,1016.8
2023-01-27T02:15:33.347Z,1016.9
2023-01-27T02:16:36.623Z,1016.8
2023-01-27T02:17:39.427Z,1016.9
2023-01-27T02:18:42.531Z,1016.9
2023-01-27T02:19:45.669Z,1016.9
2023-01-27T02:20:49.303Z,1016.9
2023-01-27T02:21:52.511Z,1016.9
2023-01-27T02:22:55.222Z,1016.9
2023-01-27T02:23:58.818Z,1016.9
2023-01-27T02:25:02.541Z,1016.9
2023-01-27T02:26:05.919Z,1016.9
2023-01-27T02:27:08.897Z,1016.9
2023-01-27T02:28:12.066Z,1016.8
2023-01-27T02:29:15.043Z,1016.9
2023-01-27T02:30:17.194Z,1016.9
2023-01-27T02:31:20.044Z,1016.9
2023-01-27T02:32:23.875Z,1017
2023-01-27T02:33:26.776Z,1016.9
2023-01-27T02:34:29.597Z,1016.9
2023-01-27T02:35:32.671Z,1016.9
2023-01-27T02:36:36.211Z,1016.9
2023-01-27T02:37:39.563Z,1016.9
2023-01-27T02:38:43.111Z,1017
2023-01-27T02:39:46.183Z,1016.9
2023-01-27T02:40:48.974Z,1016.9
2023-01-27T02:41:52.488Z,1017
2023-01-27T02:42:55.724Z,1017
2023-01-27T02:43:58.475Z,1017
2023-01-27T02:45:01.796Z,1017
2023-01-27T02:46:05.536Z,1017
2023-01-27T02:47:09.488Z,1017
2023-01-27T02:48:12.928Z,1017.1
2023-01-27T02:49:16.135Z,1017.1
2023-01-27T02:50:19.460Z,1017.1
2023-01-27T02:51:23.205Z,1017.1
2023-01-27T02:52:25.994Z,1017.1
2023-01-27T02:53:29.761Z,1017.2
2023-01-27T02:54:33.041Z,1017.2
2023-01-27T02:55:35.751Z,1017.2
2023-01-27T02:56:38.256Z,1017.2
2023-01-27T02:57:42.031Z,1017.2
2023-01-27T02:58:45.147Z,1017.3
2023-01-27T02:59:47.953Z,1017.2
2023-01-27T03:00:50.847Z,1017.3
2023-01-27T03:01:53.856Z,1017.3
2023-01-27T03:02:56.738Z,1017.3
2023-01-27T03:03:59.895Z,1017.3
2023-01-27T03:05:03.051Z,1017.3
2023-01-27T03:06:06.864Z,1017.3
2023-01-27T03:07:09.634Z,1017.3
2023-01-27T03:08:12.749Z,1017.3
2023-01-27T03:09:16.486Z,1017.3
2023-01-27T03:10:20.047Z,1017.3
2023-01-27T03:11:22.834Z,1017.3
2023-01-27T03:12:24.979Z,1017.3
2023-01-27T03:13:28.603Z,1017.3
2023-01-27T03:14:32.312Z,1017.4
2023-01-27T03:15:35.793Z,1017.3
2023-01-27T03:16:39.129Z,1017.4
2023-01-27T03:17:42.275Z,1017.3
2023-01-27T03:18:45.579Z,1017.4
2023-01-27T03:19:48.900Z,1017.4
2023-01-27T03:20:52.290Z,1017.4
2023-01-27T03:21:55.096Z,1017.4
2023-01-27T03:22:58.382Z,1017.3
2023-01-27T03:24:01.462Z,1017.4
2023-01-27T03:25:04.144Z,1017.4
2023-01-27T03:26:06.437Z,1017.5
2023-01-27T03:27:09.403Z,1017.5
2023-01-27T03:28:12.383Z,1017.5
2023-01-27T03:29:16.079Z,1017.5
2023-01-27T03:30:19.309Z,1017.5
2023-01-27T03:31:22.981Z,1017.4
2023-01-27T03:32:26.811Z,1017.5
2023-01-27T03:33:30.225Z,1017.5
2023-01-27T03:34:33.391Z,1017.5
2023-01-27T03:35:36.895Z,1017.5
2023-01-27T03:36:40.147Z,1017.5
2023-01-27T03:37:42.975Z,1017.6
2023-01-27T03:38:46.167Z,1017.5
2023-01-27T03:39:50.126Z,1017.6
2023-01-27T03:40:53.543Z,1017.6
2023-01-27T03:41:56.643Z,1017.6
2023-01-27T03:42:59.753Z,1017.6
2023-01-27T03:44:03.542Z,1017.6
2023-01-27T03:45:06.910Z,1017.6
2023-01-27T03:46:10.800Z,1017.6
2023-01-27T03:47:14.145Z,1017.6
2023-01-27T03:48:16.944Z,1017.6
2023-01-27T03:49:20.891Z,1017.7
2023-01-27T03:50:24.917Z,1017.6
2023-01-27T03:51:27.975Z,1017.7
2023-01-27T03:52:31.477Z,1017.6
2023-01-27T03:53:34.862Z,1017.7
2023-01-27T03:54:38.577Z,1017.6
2023-01-27T03:55:41.601Z,1017.6
2023-01-27T03:56:44.415Z,1017.7
2023-01-27T03:57:47.552Z,1017.6
2023-01-27T03:58:50.625Z,1017.6
2023-01-27T03:59:53.720Z,1017.7
2023-01-27T04:00:57.110Z,1017.7
2023-01-27T04:01:59.619Z,1017.7
2023-01-27T04:03:02.723Z,1017.7
2023-01-27T04:04:06.024Z,1017.7
2023-01-27T04:05:09.297Z,1017.7
2023-01-27T04:06:12.583Z,1017.7
2023-01-27T04:07:16.011Z,1017.7
2023-01-27T04:08:19.563Z,1017.7
2023-01-27T04:09:22.999Z,1017.7
2023-01-27T04:10:26.763Z,1017.7
2023-01-27T04:11:32.228Z,1017.7
2023-01-27T04:12:35.513Z,1017.7
2023-01-27T04:13:38.592Z,1017.7
2023-01-27T04:14:42.370Z,1017.7
2023-01-27T04:15:45.972Z,1017.7
2023-01-27T04:16:49.740Z,1017.7
2023-01-27T04:17:52.458Z,1017.7
2023-01-27T04:18:55.538Z,1017.7
2023-01-27T04:19:58.340Z,1017.7
2023-01-27T04:21:01.582Z,1017.7
2023-01-27T04:22:05.281Z,1017.8
2023-01-27T04:23:08.694Z,1017.8
2023-01-27T04:24:12.165Z,1017.8
2023-01-27T04:25:16.514Z,1017.7
2023-01-27T04:26:21.811Z,1017.7
2023-01-27T04:27:24.789Z,1017.8
2023-01-27T04:28:44.830Z,1017.8
2023-01-27T04:29:48.815Z,1017.8
2023-01-27T04:30:52.881Z,1017.9
2023-01-27T04:31:56.672Z,1017.9
2023-01-27T04:33:01.100Z,1017.9
2023-01-27T04:34:04.913Z,1017.9
2023-01-27T04:35:07.722Z,1017.9
2023-01-27T04:36:11.393Z,1017.8
2023-01-27T04:37:13.905Z,1017.8
2023-01-27T04:38:17.038Z,1017.8
2023-01-27T04:39:20.157Z,1017.9
2023-01-27T04:40:23.235Z,1017.9
2023-01-27T04:41:26.976Z,1018
2023-01-27T04:42:30.253Z,1018
2023-01-27T04:43:33.662Z,1018
2023-01-27T04:44:36.638Z,1018.1
2023-01-27T04:45:39.558Z,1018.1
2023-01-27T04:46:42.832Z,1018.1
2023-01-27T04:47:46.638Z,1018.1
2023-01-27T04:48:50.084Z,1018.1
2023-01-27T04:49:53.201Z,1018.1
2023-01-27T04:50:55.614Z,1018.1
2023-01-27T04:51:58.085Z,1018.1
2023-01-27T04:53:01.537Z,1018.2
2023-01-27T04:54:05.357Z,1018.2
2023-01-27T04:55:09.130Z,1018.2
2023-01-27T04:56:11.950Z,1018.2
2023-01-27T04:57:14.745Z,1018.2
2023-01-27T04:58:18.881Z,1018.2
2023-01-27T04:59:22.589Z,1018.2
2023-01-27T05:00:25.378Z,1018.2
2023-01-27T05:01:28.939Z,1018.2
2023-01-27T05:02:32.349Z,1018.2
2023-01-27T05:03:36.054Z,1018.2
2023-01-27T05:04:39.414Z,1018.2
2023-01-27T05:05:41.896Z,1018.2
2023-01-27T05:06:45.843Z,1018.2
2023-01-27T05:07:49.209Z,1018.2
2023-01-27T05:08:52.599Z,1018.2
2023-01-27T05:09:56.263Z,1018.2
2023-01-27T05:10:58.735Z,1018.2
2023-01-27T05:12:01.777Z,1018.2
2023-01-27T05:13:05.128Z,1018.2
2023-01-27T05:14:08.752Z,1018.2
2023-01-27T05:15:12.304Z,1018.2
2023-01-27T05:16:17.246Z,1018.3
2023-01-27T05:17:21.451Z,1018.3
2023-01-27T05:18:24.893Z,1018.3
2023-01-27T05:19:28.343Z,1018.3
2023-01-27T05:20:32.175Z,1018.3
2023-01-27T05:21:35.371Z,1018.3
2023-01-27T05:22:38.779Z,1018.3
2023-01-27T05:23:41.638Z,1018.2
2023-01-27T05:24:44.446Z,1018.3
2023-01-27T05:25:48.265Z,1018.3
2023-01-27T05:26:51.013Z,1018.3
2023-01-27T05:27:54.656Z,1018.3
2023-01-27T05:28:57.442Z,1018.4
2023-01-27T05:30:00.653Z,1018.4
2023-01-27T05:31:04.232Z,1018.4
2023-01-27T05:32:08.480Z,1018.4
2023-01-27T05:33:11.905Z,1018.4
2023-01-27T05:34:15.202Z,1018.4
2023-01-27T05:35:19.031Z,1018.3
2023-01-27T05:36:22.295Z,1018.3
2023-01-27T05:37:26.351Z,1018.3
2023-01-27T05:38:29.254Z,1018.3
2023-01-27T05:39:32.387Z,1018.3
2023-01-27T05:40:35.396Z,1018.3
2023-01-27T05:41:39.106Z,1018.4
2023-01-27T05:42:42.220Z,1018.4
2023-01-27T05:43:45.075Z,1018.4
2023-01-27T05:44:50.628Z,1018.4
2023-01-27T05:45:53.364Z,1018.4
2023-01-27T05:46:56.837Z,1018.4
2023-01-27T05:47:59.674Z,1018.4
2023-01-27T05:49:03.416Z,1018.4
2023-01-27T05:50:05.739Z,1018.4
2023-01-27T05:51:09.480Z,1018.4
2023-01-27T05:52:16.634Z,1018.4
2023-01-27T05:53:19.150Z,1018.4
2023-01-27T05:54:22.132Z,1018.4
2023-01-27T05:55:25.223Z,1018.4
2023-01-27T05:56:28.082Z,1018.4
2023-01-27T05:57:31.881Z,1018.4
2023-01-27T05:58:34.957Z,1018.4
2023-01-27T05:59:37.704Z,1018.4
2023-01-27T06:00:40.855Z,1018.4
2023-01-27T06:01:44.049Z,1018.5
2023-01-27T06:02:47.381Z,1018.5
2023-01-27T06:03:51.037Z,1018.5
2023-01-27T06:04:54.037Z,1018.5
2023-01-27T06:05:57.249Z,1018.5
2023-01-27T06:07:01.006Z,1018.5
2023-01-27T06:08:03.710Z,1018.5
2023-01-27T06:09:06.652Z,1018.5
2023-01-27T06:10:09.522Z,1018.6
2023-01-27T06:11:12.494Z,1018.6
2023-01-27T06:12:15.723Z,1018.6
2023-01-27T06:13:19.265Z,1018.6
2023-01-27T06:14:22.547Z,1018.6
2023-01-27T06:15:25.638Z,1018.7
2023-01-27T06:16:28.869Z,1018.7
2023-01-27T06:17:33.018Z,1018.7
2023-01-27T06:18:36.329Z,1018.7
2023-01-27T06:19:39.623Z,1018.7
2023-01-27T06:20:43.076Z,1018.7
2023-01-27T06:21:47.173Z,1018.7
2023-01-27T06:22:50.587Z,1018.7
2023-01-27T06:23:53.472Z,1018.7
2023-01-27T06:24:56.925Z,1018.7
2023-01-27T06:26:00.663Z,1018.7
2023-01-27T06:27:03.972Z,1018.8
2023-01-27T06:28:10.731Z,1018.7
2023-01-27T06:29:32.216Z,1018.8
2023-01-27T06:30:35.596Z,1018.8
2023-01-27T06:31:39.007Z,1018.9
2023-01-27T06:32:41.634Z,1018.8
2023-01-27T06:33:45.039Z,1018.8
2023-01-27T06:34:47.882Z,1018.8
2023-01-27T06:35:51.730Z,1018.8
2023-01-27T06:36:55.208Z,1018.8
2023-01-27T06:37:58.662Z,1018.8
2023-01-27T06:39:02.199Z,1018.8
2023-01-27T06:40:06.032Z,1018.8
2023-01-27T06:41:09.678Z,1018.8
2023-01-27T06:42:12.353Z,1018.9
2023-01-27T06:43:15.739Z,1018.9
2023-01-27T06:44:19.119Z,1018.9
2023-01-27T06:45:22.933Z,1018.9
2023-01-27T06:46:26.965Z,1019
2023-01-27T06:47:30.540Z,1019
2023-01-27T06:48:33.602Z,1019
2023-01-27T06:49:36.673Z,1019
2023-01-27T06:50:40.143Z,1019
2023-01-27T06:51:42.994Z,1019.1
2023-01-27T06:52:46.356Z,1019
2023-01-27T06:53:50.045Z,1019.1
2023-01-27T06:54:53.145Z,1019.1
2023-01-27T06:55:56.006Z,1019.1
2023-01-27T06:56:59.047Z,1019.1
2023-01-27T06:58:02.452Z,1019.1
2023-01-27T06:59:06.354Z,1019.1
2023-01-27T07:00:10.447Z,1019.1
2023-01-27T07:01:15.694Z,1019.2
2023-01-27T07:02:18.810Z,1019.2
2023-01-27T07:03:22.368Z,1019.2
2023-01-27T07:04:25.421Z,1019.2
2023-01-27T07:05:28.499Z,1019.2
2023-01-27T07:06:31.857Z,1019.3
2023-01-27T07:07:34.855Z,1019.2
2023-01-27T07:08:38.264Z,1019.3
2023-01-27T07:09:53.118Z,1019.4
2023-01-27T07:10:56.209Z,1019.4
2023-01-27T07:11:59.918Z,1019.4
2023-01-27T07:13:03.056Z,1019.4
2023-01-27T07:14:07.966Z,1019.4
2023-01-27T07:15:13.475Z,1019.5
2023-01-27T07:16:17.315Z,1019.5
2023-01-27T07:17:21.044Z,1019.4
2023-01-27T07:18:24.059Z,1019.5
2023-01-27T07:19:27.477Z,1019.6
2023-01-27T07:20:30.608Z,1019.5
2023-01-27T07:21:33.648Z,1019.6
2023-01-27T07:22:36.110Z,1019.6
2023-01-27T07:23:38.934Z,1019.6
2023-01-27T07:24:42.209Z,1019.7
2023-01-27T07:25:45.570Z,1019.7
2023-01-27T07:26:48.741Z,1019.7
2023-01-27T07:27:52.488Z,1019.6
2023-01-27T07:28:55.549Z,1019.7
2023-01-27T07:29:58.640Z,1019.7
2023-01-27T07:31:02.145Z,1019.7
2023-01-27T07:32:05.877Z,1019.8
2023-01-27T07:33:09.661Z,1019.7
2023-01-27T07:34:13.237Z,1019.7
2023-01-27T07:35:16.045Z,1019.7
2023-01-27T07:36:19.126Z,1019.7
2023-01-27T07:37:22.165Z,1019.7
2023-01-27T07:38:25.263Z,1019.8
2023-01-27T07:39:28.361Z,1019.8
2023-01-27T07:40:31.437Z,1019.8
2023-01-27T07:41:35.210Z,1019.8
2023-01-27T07:42:38.591Z,1019.8
2023-01-27T07:43:42.272Z,1019.8
2023-01-27T07:44:45.379Z,1019.8
2023-01-27T07:45:48.689Z,1019.8
2023-01-27T07:46:52.495Z,1019.9
2023-01-27T07:47:55.567Z,1019.9
2023-01-27T07:48:59.047Z,1019.9
2023-01-27T07:50:02.141Z,1019.9
2023-01-27T07:51:05.511Z,1019.9
2023-01-27T07:52:08.679Z,1019.9
2023-01-27T07:53:12.109Z,1019.9
2023-01-27T07:54:15.478Z,1019.9
2023-01-27T07:55:19.616Z,1019.9
2023-01-27T07:56:22.791Z,1019.9
2023-01-27T07:57:26.504Z,1020
2023-01-27T07:58:29.313Z,1020
2023-01-27T07:59:31.791Z,1020
2023-01-27T08:00:34.647Z,1019.9
2023-01-27T08:01:38.744Z,1020
2023-01-27T08:02:42.776Z,1020
2023-01-27T08:03:46.261Z,1020
2023-01-27T08:04:54.062Z,1020
2023-01-27T08:05:57.375Z,1020
2023-01-27T08:07:00.581Z,1020
2023-01-27T08:08:03.375Z,1020
2023-01-27T08:09:06.645Z,1020
2023-01-27T08:10:10.102Z,1020
2023-01-27T08:11:15.286Z,1020
2023-01-27T08:12:18.373Z,1020
2023-01-27T08:13:22.534Z,1020
2023-01-27T08:14:26.175Z,1020
2023-01-27T08:15:29.247Z,1020
2023-01-27T08:16:32.405Z,1020.1
2023-01-27T08:17:35.863Z,1020
2023-01-27T08:18:39.623Z,1020
2023-01-27T08:19:43.756Z,1020
2023-01-27T08:20:47.818Z,1020
2023-01-27T08:21:50.920Z,1020
2023-01-27T08:22:53.687Z,1020
2023-01-27T08:23:57.163Z,1020
2023-01-27T08:25:00.439Z,1020.1
2023-01-27T08:26:03.564Z,1020
2023-01-27T08:27:08.819Z,1020
2023-01-27T08:28:12.559Z,1020.1
2023-01-27T08:29:15.729Z,1020
2023-01-27T08:30:19.888Z,1020.1
2023-01-27T08:31:23.962Z,1020
2023-01-27T08:32:28.202Z,1020.1
2023-01-27T08:33:31.951Z,1020.1
2023-01-27T08:34:35.073Z,1020.1
2023-01-27T08:35:37.837Z,1020.1
2023-01-27T08:36:41.571Z,1020
2023-01-27T08:37:48.373Z,1020.1
2023-01-27T08:38:51.798Z,1020
2023-01-27T08:39:54.899Z,1020
2023-01-27T08:40:58.274Z,1020.1
2023-01-27T08:42:02.006Z,1020
2023-01-27T08:43:05.649Z,1020.1
2023-01-27T08:44:08.658Z,1020.1
2023-01-27T08:45:12.719Z,1020.1
2023-01-27T08:46:15.996Z,1020.1
2023-01-27T08:47:19.085Z,1020.2
2023-01-27T08:48:22.080Z,1020.1
2023-01-27T08:49:24.551Z,1020.1
2023-01-27T08:50:27.943Z,1020.1
2023-01-27T08:51:31.490Z,1020.1
2023-01-27T08:52:34.321Z,1020.2
2023-01-27T08:53:38.253Z,1020.1
2023-01-27T08:54:41.878Z,1020.2
2023-01-27T08:55:45.715Z,1020.1
2023-01-27T08:56:49.162Z,1020.2
2023-01-27T08:57:53.182Z,1020.2
2023-01-27T08:58:56.572Z,1020.2
2023-01-27T09:00:00.306Z,1020.2
2023-01-27T09:01:04.254Z,1020.2
2023-01-27T09:02:07.603Z,1020.1
2023-01-27T09:03:10.979Z,1020.1
2023-01-27T09:04:14.110Z,1020.1
2023-01-27T09:05:17.279Z,1020.1
2023-01-27T09:06:20.116Z,1020.1
2023-01-27T09:07:23.856Z,1020.2
2023-01-27T09:08:27.252Z,1020.2
2023-01-27T09:09:30.444Z,1020.2
2023-01-27T09:10:33.547Z,1020.2
2023-01-27T09:11:36.698Z,1020.2
2023-01-27T09:12:39.966Z,1020.3
2023-01-27T09:13:43.976Z,1020.3
2023-01-27T09:14:47.016Z,1020.3
2023-01-27T09:15:50.789Z,1020.3
2023-01-27T09:16:54.764Z,1020.3
2023-01-27T09:17:58.760Z,1020.3
2023-01-27T09:19:01.792Z,1020.4
2023-01-27T09:20:05.135Z,1020.3
2023-01-27T09:21:08.309Z,1020.4
2023-01-27T09:22:11.709Z,1020.5
2023-01-27T09:23:15.090Z,1020.5
2023-01-27T09:24:18.506Z,1020.5
2023-01-27T09:25:22.248Z,1020.5
2023-01-27T09:26:25.702Z,1020.6
2023-01-27T09:27:40.278Z,1020.6
2023-01-27T09:28:43.384Z,1020.5
2023-01-27T09:29:46.403Z,1020.5
2023-01-27T09:30:50.527Z,1020.5
2023-01-27T09:31:54.766Z,1020.5
2023-01-27T09:32:58.395Z,1020.6
2023-01-27T09:34:01.587Z,1020.6
2023-01-27T09:35:04.350Z,1020.6
2023-01-27T09:36:08.071Z,1020.7
2023-01-27T09:37:11.802Z,1020.6
2023-01-27T09:38:15.200Z,1020.6
2023-01-27T09:39:18.628Z,1020.6
2023-01-27T09:40:22.521Z,1020.6
2023-01-27T09:41:26.205Z,1020.6
2023-01-27T09:42:29.033Z,1020.6
2023-01-27T09:43:32.419Z,1020.6
2023-01-27T09:44:35.504Z,1020.6
2023-01-27T09:45:38.881Z,1020.6
2023-01-27T09:46:41.937Z,1020.6
2023-01-27T09:47:45.741Z,1020.6
2023-01-27T09:48:49.388Z,1020.5
2023-01-27T09:49:52.190Z,1020.6
2023-01-27T09:50:55.566Z,1020.6
2023-01-27T09:51:58.309Z,1020.6
2023-01-27T09:53:01.873Z,1020.6
2023-01-27T09:54:05.576Z,1020.6
2023-01-27T09:55:08.981Z,1020.6
2023-01-27T09:56:12.905Z,1020.6
2023-01-27T09:57:16.611Z,1020.6
2023-01-27T09:58:19.653Z,1020.6
2023-01-27T09:59:24.566Z,1020.6
2023-01-27T10:00:28.020Z,1020.6
2023-01-27T10:01:31.518Z,1020.6
2023-01-27T10:02:35.045Z,1020.6
2023-01-27T10:03:38.316Z,1020.6
2023-01-27T10:04:41.777Z,1020.6
2023-01-27T10:05:44.759Z,1020.6
2023-01-27T10:06:48.193Z,1020.6
2023-01-27T10:07:50.635Z,1020.6
2023-01-27T10:08:53.651Z,1020.6
2023-01-27T10:09:56.390Z,1020.7
2023-01-27T10:10:59.543Z,1020.7
2023-01-27T10:12:02.638Z,1020.7
2023-01-27T10:13:06.115Z,1020.7
2023-01-27T10:14:09.122Z,1020.7
2023-01-27T10:15:12.166Z,1020.7
2023-01-27T10:16:14.998Z,1020.6
2023-01-27T10:17:18.602Z,1020.7
2023-01-27T10:18:22.422Z,1020.6
2023-01-27T10:19:25.956Z,1020.6
2023-01-27T10:20:29.997Z,1020.6
2023-01-27T10:21:33.846Z,1020.6
2023-01-27T10:22:36.767Z,1020.6
2023-01-27T10:23:40.048Z,1020.6
2023-01-27T10:24:43.302Z,1020.6
2023-01-27T10:25:46.647Z,1020.6
2023-01-27T10:26:50.390Z,1020.6
2023-01-27T10:27:53.791Z,1020.6
2023-01-27T10:28:57.820Z,1020.6
2023-01-27T10:30:01.193Z,1020.6
2023-01-27T10:31:04.664Z,1020.6
2023-01-27T10:32:08.432Z,1020.6
2023-01-27T10:33:11.432Z,1020.6
2023-01-27T10:34:14.732Z,1020.6
2023-01-27T10:35:18.087Z,1020.6
2023-01-27T10:36:20.990Z,1020.6
2023-01-27T10:37:23.441Z,1020.7
2023-01-27T10:38:27.056Z,1020.6
2023-01-27T10:39:30.187Z,1020.6
2023-01-27T10:40:33.542Z,1020.6
2023-01-27T10:41:36.267Z,1020.6
2023-01-27T10:42:39.601Z,1020.6
2023-01-27T10:43:43.309Z,1020.7
2023-01-27T10:44:46.418Z,1020.6
2023-01-27T10:45:50.320Z,1020.7
2023-01-27T10:46:54.804Z,1020.6
2023-01-27T10:47:58.617Z,1020.6
2023-01-27T10:49:01.762Z,1020.6
2023-01-27T10:50:04.628Z,1020.6
2023-01-27T10:51:08.357Z,1020.6
2023-01-27T10:52:11.777Z,1020.6
2023-01-27T10:53:15.049Z,1020.6
2023-01-27T10:54:18.806Z,1020.5
2023-01-27T10:55:21.993Z,1020.5
2023-01-27T10:56:24.782Z,1020.5
2023-01-27T10:57:27.809Z,1020.5
2023-01-27T10:58:31.347Z,1020.5
2023-01-27T10:59:34.852Z,1020.5
2023-01-27T11:01:20.660Z,1020.5
2023-01-27T11:02:29.437Z,1020.5
2023-01-27T11:03:32.174Z,1020.4
2023-01-27T11:04:36.008Z,1020.4
2023-01-27T11:05:38.904Z,1020.4
2023-01-27T11:06:42.281Z,1020.4
2023-01-27T11:07:45.714Z,1020.4
2023-01-27T11:08:48.803Z,1020.4
2023-01-27T11:09:52.187Z,1020.4
2023-01-27T11:10:55.475Z,1020.4
2023-01-27T11:11:59.210Z,1020.5
2023-01-27T11:13:02.654Z,1020.5
2023-01-27T11:14:06.759Z,1020.5
2023-01-27T11:15:09.936Z,1020.4
2023-01-27T11:16:12.835Z,1020.4
2023-01-27T11:17:16.396Z,1020.4
2023-01-27T11:18:19.612Z,1020.4
2023-01-27T11:19:22.729Z,1020.4
2023-01-27T11:20:26.384Z,1020.5
2023-01-27T11:21:30.111Z,1020.4
2023-01-27T11:22:34.214Z,1020.4
2023-01-27T11:23:37.742Z,1020.4
2023-01-27T11:24:41.209Z,1020.4
2023-01-27T11:25:44.624Z,1020.4
2023-01-27T11:26:47.792Z,1020.4
2023-01-27T11:27:50.978Z,1020.4
2023-01-27T11:28:53.803Z,1020.4
2023-01-27T11:29:57.193Z,1020.4
2023-01-27T11:31:01.208Z,1020.4
2023-01-27T11:32:04.577Z,1020.4
2023-01-27T11:33:08.657Z,1020.4
2023-01-27T11:34:11.939Z,1020.4
2023-01-27T11:35:15.569Z,1020.4
2023-01-27T11:36:18.753Z,1020.4
2023-01-27T11:37:22.432Z,1020.4
2023-01-27T11:38:25.584Z,1020.4
2023-01-27T11:39:28.961Z,1020.4
2023-01-27T11:40:31.954Z,1020.4
2023-01-27T11:41:35.691Z,1020.3
2023-01-27T11:42:38.970Z,1020.3
2023-01-27T11:43:42.029Z,1020.3
2023-01-27T11:44:45.491Z,1020.4
2023-01-27T11:45:48.643Z,1020.4
2023-01-27T11:46:52.362Z,1020.3
2023-01-27T11:47:56.062Z,1020.3
2023-01-27T11:48:59.169Z,1020.2
2023-01-27T11:50:02.516Z,1020.3
2023-01-27T11:51:05.606Z,1020.3
2023-01-27T11:52:09.354Z,1020.3
2023-01-27T11:53:12.412Z,1020.3
2023-01-27T11:54:15.905Z,1020.3
2023-01-27T11:55:18.984Z,1020.3
2023-01-27T11:56:21.815Z,1020.2
2023-01-27T11:57:24.857Z,1020.3
2023-01-27T11:58:27.658Z,1020.2
2023-01-27T11:59:30.914Z,1020.2
2023-01-27T12:00:33.925Z,1020.2
2023-01-27T12:01:38.129Z,1020.2
2023-01-27T12:02:44.897Z,1020.2
2023-01-27T12:03:48.049Z,1020.2
2023-01-27T12:04:52.250Z,1020.1
2023-01-27T12:05:56.687Z,1020.1
2023-01-27T12:06:59.885Z,1020.1
2023-01-27T12:08:02.683Z,1020
2023-01-27T12:09:05.791Z,1020.1
2023-01-27T12:10:08.522Z,1020.1
2023-01-27T12:11:12.344Z,1020
2023-01-27T12:12:14.949Z,1020.1
2023-01-27T12:13:18.183Z,1020
2023-01-27T12:14:21.033Z,1020
2023-01-27T12:15:24.412Z,1020
2023-01-27T12:16:27.515Z,1019.9
2023-01-27T12:17:30.920Z,1020
2023-01-27T12:18:34.586Z,1019.9
2023-01-27T12:19:38.139Z,1020
2023-01-27T12:20:41.428Z,1020
2023-01-27T12:21:44.438Z,1020
2023-01-27T12:22:47.558Z,1020
2023-01-27T12:23:51.149Z,1020
2023-01-27T12:24:54.847Z,1020
2023-01-27T12:25:57.935Z,1020
2023-01-27T12:27:01.593Z,1020
2023-01-27T12:28:04.530Z,1019.9
2023-01-27T12:29:06.443Z,1020
2023-01-27T12:30:09.962Z,1020
2023-01-27T12:31:14.492Z,1020
2023-01-27T12:32:19.180Z,1020
2023-01-27T12:33:22.772Z,1020
2023-01-27T12:34:26.237Z,1020
2023-01-27T12:35:30.037Z,1020
2023-01-27T12:36:33.374Z,1020
2023-01-27T12:37:36.516Z,1020
2023-01-27T12:38:39.956Z,1020
2023-01-27T12:39:43.375Z,1020.1
2023-01-27T12:40:46.265Z,1020
2023-01-27T12:41:49.617Z,1020
2023-01-27T12:42:53.262Z,1020
2023-01-27T12:43:56.892Z,1020.1
2023-01-27T12:45:00.922Z,1020.1
2023-01-27T12:46:04.010Z,1020.1
2023-01-27T12:47:07.028Z,1020.1
2023-01-27T12:48:10.435Z,1020.1
2023-01-27T12:49:13.859Z,1020.1
2023-01-27T12:50:17.639Z,1020.1
2023-01-27T12:51:21.088Z,1020.1
2023-01-27T12:52:24.875Z,1020.1
2023-01-27T12:53:27.876Z,1020.1
2023-01-27T12:54:31.049Z,1020.1
2023-01-27T12:55:35.065Z,1020.1
2023-01-27T12:56:38.764Z,1020.1
2023-01-27T12:57:42.116Z,1020.1
2023-01-27T12:58:45.516Z,1020.1
2023-01-27T12:59:48.895Z,1020.2
2023-01-27T13:00:52.551Z,1020.2
2023-01-27T13:01:56.203Z,1020.1
2023-01-27T13:02:59.363Z,1020.1
2023-01-27T13:04:02.541Z,1020.1
2023-01-27T13:05:06.125Z,1020.2
2023-01-27T13:06:10.161Z,1020.2
2023-01-27T13:07:13.865Z,1020.2
2023-01-27T13:08:17.324Z,1020.2
2023-01-27T13:09:20.392Z,1020.2
2023-01-27T13:10:23.840Z,1020.2
2023-01-27T13:11:27.276Z,1020.3
2023-01-27T13:12:30.286Z,1020.2
2023-01-27T13:13:33.365Z,1020.2
2023-01-27T13:14:37.060Z,1020.2
2023-01-27T13:15:40.313Z,1020.3
2023-01-27T13:16:43.958Z,1020.2
2023-01-27T13:17:47.111Z,1020.2
2023-01-27T13:18:50.818Z,1020.2
2023-01-27T13:19:53.549Z,1020.3